Aérodrome :
LOGIN :

S'inscrire | Disclaimer

   EN    FR    IT 

 










Légende :    VFR   VFR Marginal   IFR   IFR Intensif   IFR Très Intensif
Visi : 
Plafond : 
>= 8 km
>= 3000ft
5 à 8 km
1000 à 3000 ft
1500m à 5 km
500 à 1000 ft
800 à 1500m
200 à 500 ft
< 800m
< 200 ft
Symboles :   Orages  Brouillard  Fortes neiges  Fortes précipitations  Vent > 20 kt
SIGMETs :   Divers  Orages  Givrage  Turbulence  Onde Orograph.  Cendres Volcan.






- Altitude de l'aérodrome : 1197 ft
- Code IATA : SPM


ETAD - Spangdahlem Ab

DERNIER METAR :
  • 210335Z AUTO 19006KT 9999 -RA SCT009 BKN013 13/13 A2991 RMK AO2 RAB35 CIG 009V013 SLP117 $

METARs EXPIRÉS :
  • 210311Z AUTO 19007KT 9999 BKN009 13/13 A2990 RMK AO2 BKN V OVC SLP114 $
  • 210256Z AUTO 19005KT 9999 BKN010 OVC014 13/13 A2989 RMK AO2 CIG 010V013 SLP111 T01300128 52025 $
  • 210225Z AUTO 20008KT 9999 OVC014 13/13 A2988 RMK AO2 CIG 014V018 SLP107 $
  • 210156Z AUTO 00000KT 9999 OVC018 13/13 A2987 RMK AO2 SLP104 T01280128 $
  • 210141Z AUTO 00000KT 9999 BKN019 13/13 A2986 RMK AO2 SLP100 $
  • 210056Z AUTO 15003KT 9999 FEW130 12/12 A2984 RMK AO2 SLP095 T01180118 $

TAF TAF ETAD
Valide du 20 à 18h jusqu'au 22 à 00h UTC


201800Z 2018/2124 06006KT 8000 -SHRA SCT015 OVC045 610809 QNH2973INS
BECMG 2103/2104 VRB06KT 9999 NSW OVC015 QNH2982INS
BECMG 2105/2106 20008KT 9999 SCT015 BKN020 QNH2991INS
BECMG 2108/2109 21010G15KT 9999 BKN025 QNH3002INS
TEMPO 2109/2114 21015G20KT
BECMG 2118/2119 VRB06KT 9999 OVC015 QNH2982INS TX16/2112Z TN13/2105Z LAST NO AMDS AFT 2018 NEXT 2104



MET'MAP, la Météo Aéronautique d'un coup d'oeil ! - Copyright ORBIFLY Décembre 2007 - Disclaimer

ORBIFLY MET'MAP TEAM :

Programmation & Développement : Alexandra Zaïnal
Conception & Développement : Baudouin d'Aumeries
Co-Programmation & Développement : Marc-Olivier Méhu
Soutien technique & logistique : Manuel Goepfert

Contact : metmap@orbifly.com




SOURCES & CREDITS :

   NOAA